4XPDC LLBG-LLHA
Flight info
| Callsign | 4XPDC |
|---|---|
| Flight time | 0h 26m |
| Altitude | 18000 |
| Route | PARDS ROKCH RIDNG HTZUK ARENA APOLN SFAIM VINGT PELEG OLGAH HADRA FRDIS HASID |
| Aircraft | TEX2/L-SDFGRY/C |
Departure
| Time | 2026-04-21 15:53 |
|---|---|
| Airport | Ben Gurion International Airport (LLBG) |
Arrival
| Time | 2026-04-21 16:19 |
|---|---|
| Airport | Uri Michaeli Haifa International Airport (LLHA) |
| Time | Latitude | Longitude | Altitude | Speed | Heading |
|---|---|---|---|---|---|
| 2026-04-21 15:43 | 32.00662 | 34.89587 | 115 ft | 0 kts | 298° |
| 2026-04-21 15:44 | 32.00662 | 34.89588 | 115 ft | 0 kts | 298° |
| 2026-04-21 15:45 | 32.00662 | 34.89587 | 115 ft | 0 kts | 298° |
| 2026-04-21 15:46 | 32.00665 | 34.89586 | 115 ft | 2 kts | 25° |
| 2026-04-21 15:46 | 32.00666 | 34.89586 | 115 ft | 0 kts | 51° |
| 2026-04-21 15:48 | 32.00668 | 34.89591 | 115 ft | 2 kts | 79° |
| 2026-04-21 15:48 | 32.00651 | 34.89614 | 115 ft | 5 kts | 148° |
| 2026-04-21 15:49 | 32.00646 | 34.89646 | 115 ft | 5 kts | 36° |
| 2026-04-21 15:49 | 32.00694 | 34.89676 | 115 ft | 11 kts | 25° |
| 2026-04-21 15:49 | 32.00783 | 34.89733 | 115 ft | 17 kts | 32° |
| 2026-04-21 15:49 | 32.00865 | 34.89669 | 115 ft | 19 kts | 294° |
| 2026-04-21 15:50 | 32.00934 | 34.89520 | 117 ft | 22 kts | 300° |
| 2026-04-21 15:50 | 32.01002 | 34.89373 | 116 ft | 23 kts | 301° |
| 2026-04-21 15:50 | 32.01049 | 34.89314 | 115 ft | 9 kts | 358° |
| 2026-04-21 15:50 | 32.01124 | 34.89349 | 115 ft | 15 kts | 30° |
| 2026-04-21 15:51 | 32.01230 | 34.89416 | 115 ft | 20 kts | 30° |
| 2026-04-21 15:51 | 32.01370 | 34.89507 | 115 ft | 25 kts | 29° |
| 2026-04-21 15:51 | 32.01533 | 34.89611 | 115 ft | 21 kts | 33° |
| 2026-04-21 15:51 | 32.01639 | 34.89677 | 115 ft | 18 kts | 26° |
| 2026-04-21 15:52 | 32.01729 | 34.89734 | 114 ft | 17 kts | 28° |
| 2026-04-21 15:52 | 32.01836 | 34.89734 | 113 ft | 19 kts | 289° |
| 2026-04-21 15:52 | 32.01830 | 34.89628 | 113 ft | 21 kts | 259° |
| 2026-04-21 15:52 | 32.01786 | 34.89322 | 113 ft | 79 kts | 261° |
| 2026-04-21 15:53 | 32.01603 | 34.88422 | 308 ft | 136 kts | 268° |
| 2026-04-21 15:53 | 32.01817 | 34.87345 | 700 ft | 141 kts | 323° |
| 2026-04-21 15:53 | 32.02719 | 34.86820 | 879 ft | 138 kts | 339° |
| 2026-04-21 15:53 | 32.03575 | 34.86564 | 1071 ft | 117 kts | 346° |
| 2026-04-21 15:54 | 32.04342 | 34.86428 | 1088 ft | 107 kts | 352° |
| 2026-04-21 15:54 | 32.05167 | 34.86268 | 1169 ft | 147 kts | 346° |
| 2026-04-21 15:54 | 32.06220 | 34.86027 | 1347 ft | 155 kts | 347° |
| 2026-04-21 15:54 | 32.07221 | 34.85847 | 1314 ft | 135 kts | 350° |
| 2026-04-21 15:55 | 32.08128 | 34.85691 | 1234 ft | 129 kts | 345° |
| 2026-04-21 15:55 | 32.08982 | 34.85356 | 1024 ft | 131 kts | 332° |
| 2026-04-21 15:55 | 32.09552 | 34.84681 | 1098 ft | 110 kts | 295° |
| 2026-04-21 15:55 | 32.09756 | 34.83859 | 1053 ft | 101 kts | 287° |
| 2026-04-21 15:56 | 32.09907 | 34.82961 | 1129 ft | 132 kts | 284° |
| 2026-04-21 15:56 | 32.10068 | 34.81771 | 1401 ft | 157 kts | 279° |
| 2026-04-21 15:56 | 32.10215 | 34.80489 | 1719 ft | 161 kts | 277° |
| 2026-04-21 15:56 | 32.10355 | 34.79084 | 1369 ft | 169 kts | 279° |
| 2026-04-21 15:57 | 32.10680 | 34.77974 | 1256 ft | 124 kts | 317° |
| 2026-04-21 15:57 | 32.11466 | 34.77932 | 1087 ft | 124 kts | 0° |
| 2026-04-21 15:57 | 32.12340 | 34.78078 | 1235 ft | 131 kts | 8° |
| 2026-04-21 15:57 | 32.13222 | 34.78315 | 1360 ft | 129 kts | 9° |
| 2026-04-21 15:58 | 32.14114 | 34.78587 | 1292 ft | 143 kts | 11° |
| 2026-04-21 15:58 | 32.15075 | 34.78886 | 1321 ft | 145 kts | 11° |
| 2026-04-21 15:58 | 32.16054 | 34.79183 | 1341 ft | 146 kts | 11° |
| 2026-04-21 15:58 | 32.17055 | 34.79507 | 1266 ft | 152 kts | 12° |
| 2026-04-21 15:59 | 32.18063 | 34.79842 | 1295 ft | 150 kts | 12° |
| 2026-04-21 15:59 | 32.19081 | 34.80120 | 1302 ft | 151 kts | 11° |
| 2026-04-21 15:59 | 32.20098 | 34.80438 | 1334 ft | 151 kts | 10° |
| 2026-04-21 15:59 | 32.21129 | 34.80753 | 1371 ft | 152 kts | 12° |
| 2026-04-21 16:00 | 32.22176 | 34.81125 | 1223 ft | 164 kts | 14° |
| 2026-04-21 16:00 | 32.23244 | 34.81621 | 1157 ft | 168 kts | 20° |
| 2026-04-21 16:00 | 32.24329 | 34.82186 | 1058 ft | 170 kts | 20° |
| 2026-04-21 16:00 | 32.25406 | 34.82631 | 1197 ft | 158 kts | 12° |
| 2026-04-21 16:01 | 32.26416 | 34.82934 | 1401 ft | 144 kts | 11° |
| 2026-04-21 16:01 | 32.27410 | 34.83193 | 1400 ft | 148 kts | 9° |
| 2026-04-21 16:01 | 32.28383 | 34.83478 | 1517 ft | 143 kts | 9° |
| 2026-04-21 16:01 | 32.29381 | 34.83759 | 1393 ft | 156 kts | 11° |
| 2026-04-21 16:02 | 32.30474 | 34.83952 | 1371 ft | 156 kts | 2° |
| 2026-04-21 16:02 | 32.31566 | 34.84068 | 1341 ft | 158 kts | 3° |
| 2026-04-21 16:02 | 32.32661 | 34.84253 | 1297 ft | 162 kts | 8° |
| 2026-04-21 16:02 | 32.33771 | 34.84517 | 1190 ft | 164 kts | 10° |
| 2026-04-21 16:03 | 32.34861 | 34.84828 | 1268 ft | 158 kts | 10° |
| 2026-04-21 16:03 | 32.35931 | 34.85114 | 1257 ft | 159 kts | 8° |
| 2026-04-21 16:03 | 32.36957 | 34.85429 | 1464 ft | 145 kts | 12° |
| 2026-04-21 16:03 | 32.37912 | 34.85760 | 1585 ft | 145 kts | 13° |
| 2026-04-21 16:04 | 32.38860 | 34.86148 | 1670 ft | 143 kts | 15° |
| 2026-04-21 16:04 | 32.39839 | 34.86510 | 1641 ft | 151 kts | 12° |
| 2026-04-21 16:04 | 32.40873 | 34.86850 | 1568 ft | 160 kts | 11° |
| 2026-04-21 16:04 | 32.41978 | 34.87201 | 1494 ft | 165 kts | 12° |
| 2026-04-21 16:05 | 32.43059 | 34.87606 | 1589 ft | 162 kts | 23° |
| 2026-04-21 16:05 | 32.43791 | 34.88217 | 1736 ft | 159 kts | 35° |
| 2026-04-21 16:05 | 32.44657 | 34.89083 | 1659 ft | 166 kts | 36° |
| 2026-04-21 16:05 | 32.45598 | 34.89864 | 1679 ft | 166 kts | 31° |
| 2026-04-21 16:06 | 32.46535 | 34.90691 | 1632 ft | 168 kts | 29° |
| 2026-04-21 16:06 | 32.47571 | 34.91301 | 1609 ft | 166 kts | 19° |
| 2026-04-21 16:06 | 32.48635 | 34.91769 | 1609 ft | 161 kts | 17° |
| 2026-04-21 16:06 | 32.49673 | 34.92195 | 1565 ft | 164 kts | 15° |
| 2026-04-21 16:07 | 32.50719 | 34.92600 | 1676 ft | 155 kts | 13° |
| 2026-04-21 16:07 | 32.51762 | 34.92948 | 1706 ft | 153 kts | 14° |
| 2026-04-21 16:07 | 32.52742 | 34.93381 | 1748 ft | 152 kts | 16° |
| 2026-04-21 16:07 | 32.53779 | 34.93750 | 1607 ft | 159 kts | 11° |
| 2026-04-21 16:08 | 32.55978 | 34.94319 | 1513 ft | 162 kts | 8° |
| 2026-04-21 16:08 | 32.57087 | 34.94602 | 1590 ft | 163 kts | 11° |
| 2026-04-21 16:08 | 32.58226 | 34.94923 | 1608 ft | 171 kts | 11° |
| 2026-04-21 16:09 | 32.59385 | 34.95218 | 1730 ft | 170 kts | 11° |
| 2026-04-21 16:09 | 32.60421 | 34.95843 | 2018 ft | 165 kts | 29° |
| 2026-04-21 16:09 | 32.61347 | 34.96609 | 2283 ft | 160 kts | 30° |
| 2026-04-21 16:09 | 32.62257 | 34.97358 | 2473 ft | 161 kts | 31° |
| 2026-04-21 16:10 | 32.63173 | 34.98145 | 2597 ft | 165 kts | 32° |
| 2026-04-21 16:10 | 32.64124 | 34.98986 | 2572 ft | 175 kts | 35° |
| 2026-04-21 16:10 | 32.65102 | 34.99867 | 2663 ft | 178 kts | 32° |
| 2026-04-21 16:10 | 32.66134 | 35.00743 | 2524 ft | 191 kts | 31° |
| 2026-04-21 16:11 | 32.67234 | 35.01667 | 2490 ft | 195 kts | 33° |
| 2026-04-21 16:11 | 32.68299 | 35.02645 | 2565 ft | 194 kts | 36° |
| 2026-04-21 16:11 | 32.69358 | 35.03652 | 2566 ft | 190 kts | 38° |
| 2026-04-21 16:11 | 32.70316 | 35.04641 | 2687 ft | 178 kts | 33° |
| 2026-04-21 16:12 | 32.70966 | 35.05229 | 2676 ft | 175 kts | 32° |
| 2026-04-21 16:12 | 32.72290 | 35.06345 | 2614 ft | 165 kts | 31° |
| 2026-04-21 16:12 | 32.73201 | 35.07151 | 2550 ft | 159 kts | 33° |
| 2026-04-21 16:12 | 32.74063 | 35.07880 | 2522 ft | 147 kts | 14° |
| 2026-04-21 16:13 | 32.74922 | 35.07679 | 2330 ft | 120 kts | 329° |
| 2026-04-21 16:13 | 32.75679 | 35.07202 | 2176 ft | 142 kts | 327° |
| 2026-04-21 16:13 | 32.76522 | 35.06631 | 2075 ft | 130 kts | 329° |
| 2026-04-21 16:13 | 32.77291 | 35.06107 | 1835 ft | 126 kts | 329° |
| 2026-04-21 16:14 | 32.78080 | 35.05658 | 1549 ft | 126 kts | 331° |
| 2026-04-21 16:14 | 32.78846 | 35.05191 | 1553 ft | 127 kts | 330° |
| 2026-04-21 16:14 | 32.79662 | 35.04673 | 1531 ft | 139 kts | 330° |
| 2026-04-21 16:14 | 32.80528 | 35.04119 | 1579 ft | 144 kts | 328° |
| 2026-04-21 16:15 | 32.81414 | 35.03497 | 1540 ft | 153 kts | 329° |
| 2026-04-21 16:15 | 32.82387 | 35.02934 | 1556 ft | 156 kts | 338° |
| 2026-04-21 16:15 | 32.83428 | 35.02956 | 1609 ft | 161 kts | 37° |
| 2026-04-21 16:15 | 32.83637 | 35.04196 | 1552 ft | 165 kts | 117° |
| 2026-04-21 16:16 | 32.82802 | 35.05085 | 1572 ft | 164 kts | 145° |
| 2026-04-21 16:16 | 32.81805 | 35.05769 | 1504 ft | 160 kts | 162° |
| 2026-04-21 16:16 | 32.80897 | 35.06395 | 1341 ft | 138 kts | 141° |
| 2026-04-21 16:16 | 32.80221 | 35.07082 | 1234 ft | 117 kts | 141° |
| 2026-04-21 16:17 | 32.79613 | 35.07593 | 1083 ft | 103 kts | 159° |
| 2026-04-21 16:17 | 32.78856 | 35.07566 | 966 ft | 116 kts | 208° |
| 2026-04-21 16:17 | 32.78269 | 35.06983 | 1077 ft | 111 kts | 235° |
| 2026-04-21 16:17 | 32.77939 | 35.06185 | 1045 ft | 107 kts | 272° |
| 2026-04-21 16:18 | 32.78170 | 35.05503 | 856 ft | 86 kts | 342° |
| 2026-04-21 16:18 | 32.78757 | 35.05388 | 682 ft | 78 kts | 336° |
| 2026-04-21 16:18 | 32.79217 | 35.05160 | 535 ft | 71 kts | 338° |
| 2026-04-21 16:18 | 32.79696 | 35.04958 | 419 ft | 70 kts | 340° |
| 2026-04-21 16:19 | 32.80168 | 35.04708 | 294 ft | 71 kts | 343° |
| 2026-04-21 16:19 | 32.80712 | 35.04510 | 22 ft | 69 kts | 333° |
| 2026-04-21 16:19 | 32.81085 | 35.04345 | 22 ft | 50 kts | 340° |
| 2026-04-21 16:19 | 32.81372 | 35.04222 | 24 ft | 27 kts | 338° |
| 2026-04-21 16:20 | 32.81458 | 35.04194 | 26 ft | 0 kts | 75° |
| 2026-04-21 16:20 | 32.81465 | 35.04218 | 26 ft | 9 kts | 64° |
| 2026-04-21 16:20 | 32.81486 | 35.04285 | 25 ft | 3 kts | 69° |
| 2026-04-21 16:20 | 32.81503 | 35.04311 | 24 ft | 7 kts | 351° |
| 2026-04-21 16:21 | 32.81540 | 35.04348 | 23 ft | 7 kts | 347° |
| 2026-04-21 16:21 | 32.81565 | 35.04324 | 24 ft | 4 kts | 238° |
| 2026-04-21 16:21 | 32.81570 | 35.04317 | 24 ft | 0 kts | 26° |
| 2026-04-21 16:21 | 32.81571 | 35.04318 | 24 ft | 0 kts | 77° |